sensor_id;sensor_type;location;lat;lon;timestamp;P1;durP1;ratioP1;P2;durP2;ratioP2
10134;SDS011;5107;48.850;8.924;2023-06-05T00:00:29;3.60;;;2.13;;
10134;SDS011;5107;48.850;8.924;2023-06-05T00:02:54;2.70;;;2.50;;
10134;SDS011;5107;48.850;8.924;2023-06-05T00:05:20;2.90;;;2.63;;
10134;SDS011;5107;48.850;8.924;2023-06-05T00:07:45;3.67;;;2.37;;
10134;SDS011;5107;48.850;8.924;2023-06-05T00:10:13;3.90;;;2.40;;
10134;SDS011;5107;48.850;8.924;2023-06-05T00:12:38;3.00;;;2.60;;
10134;SDS011;5107;48.850;8.924;2023-06-05T00:15:05;5.23;;;2.50;;
10134;SDS011;5107;48.850;8.924;2023-06-05T00:17:34;3.20;;;2.40;;
10134;SDS011;5107;48.850;8.924;2023-06-05T00:19:59;2.33;;;2.13;;
10134;SDS011;5107;48.850;8.924;2023-06-05T00:22:28;2.60;;;2.40;;
10134;SDS011;5107;48.850;8.924;2023-06-05T00:24:54;3.73;;;2.20;;
10134;SDS011;5107;48.850;8.924;2023-06-05T00:27:19;3.77;;;2.13;;
10134;SDS011;5107;48.850;8.924;2023-06-05T00:29:45;2.83;;;2.50;;
10134;SDS011;5107;48.850;8.924;2023-06-05T00:32:10;4.37;;;2.50;;
10134;SDS011;5107;48.850;8.924;2023-06-05T00:34:35;3.90;;;2.40;;
10134;SDS011;5107;48.850;8.924;2023-06-05T00:37:01;4.33;;;2.50;;
10134;SDS011;5107;48.850;8.924;2023-06-05T00:39:27;2.70;;;2.50;;
10134;SDS011;5107;48.850;8.924;2023-06-05T00:41:52;4.13;;;2.50;;
10134;SDS011;5107;48.850;8.924;2023-06-05T00:44:17;3.53;;;2.40;;
10134;SDS011;5107;48.850;8.924;2023-06-05T00:46:43;3.73;;;2.53;;
10134;SDS011;5107;48.850;8.924;2023-06-05T00:49:09;3.80;;;2.30;;
10134;SDS011;5107;48.850;8.924;2023-06-05T00:51:38;5.37;;;2.67;;
10134;SDS011;5107;48.850;8.924;2023-06-05T00:54:06;2.80;;;2.50;;
10134;SDS011;5107;48.850;8.924;2023-06-05T00:56:32;2.40;;;2.20;;
10134;SDS011;5107;48.850;8.924;2023-06-05T00:59:00;2.63;;;2.17;;
10134;SDS011;5107;48.850;8.924;2023-06-05T01:01:26;4.03;;;2.23;;
10134;SDS011;5107;48.850;8.924;2023-06-05T01:03:55;3.00;;;2.40;;
10134;SDS011;5107;48.850;8.924;2023-06-05T01:06:29;4.27;;;2.60;;
10134;SDS011;5107;48.850;8.924;2023-06-05T01:09:03;2.40;;;2.20;;
10134;SDS011;5107;48.850;8.924;2023-06-05T01:14:24;3.20;;;2.60;;
10134;SDS011;5107;48.850;8.924;2023-06-05T01:16:53;3.23;;;2.30;;
10134;SDS011;5107;48.850;8.924;2023-06-05T01:19:19;3.07;;;2.43;;
10134;SDS011;5107;48.850;8.924;2023-06-05T01:21:46;3.53;;;2.60;;
10134;SDS011;5107;48.850;8.924;2023-06-05T01:24:12;3.30;;;2.50;;
10134;SDS011;5107;48.850;8.924;2023-06-05T01:30:01;3.10;;;2.80;;
10134;SDS011;5107;48.850;8.924;2023-06-05T01:35:27;4.07;;;2.03;;
10134;SDS011;5107;48.850;8.924;2023-06-05T01:37:59;2.60;;;2.40;;
10134;SDS011;5107;48.850;8.924;2023-06-05T01:40:27;3.80;;;2.40;;
10134;SDS011;5107;48.850;8.924;2023-06-05T01:42:55;3.17;;;2.30;;
10134;SDS011;5107;48.850;8.924;2023-06-05T01:45:22;4.27;;;2.37;;
10134;SDS011;5107;48.850;8.924;2023-06-05T01:47:48;3.77;;;2.50;;
10134;SDS011;5107;48.850;8.924;2023-06-05T01:50:15;3.33;;;2.40;;
10134;SDS011;5107;48.850;8.924;2023-06-05T01:52:41;2.93;;;2.67;;
10134;SDS011;5107;48.850;8.924;2023-06-05T01:55:07;3.53;;;2.20;;
10134;SDS011;5107;48.850;8.924;2023-06-05T01:57:37;2.63;;;2.40;;
10134;SDS011;5107;48.850;8.924;2023-06-05T02:00:03;4.27;;;2.40;;
10134;SDS011;5107;48.850;8.924;2023-06-05T02:02:33;3.07;;;2.40;;
10134;SDS011;5107;48.850;8.924;2023-06-05T02:04:59;2.73;;;2.50;;
10134;SDS011;5107;48.850;8.924;2023-06-05T02:07:24;2.90;;;2.23;;
10134;SDS011;5107;48.850;8.924;2023-06-05T02:09:50;3.60;;;2.47;;
10134;SDS011;5107;48.850;8.924;2023-06-05T02:12:15;2.63;;;2.43;;
10134;SDS011;5107;48.850;8.924;2023-06-05T02:14:41;2.73;;;2.27;;
10134;SDS011;5107;48.850;8.924;2023-06-05T02:17:10;3.30;;;2.57;;
10134;SDS011;5107;48.850;8.924;2023-06-05T02:19:38;3.80;;;2.50;;
10134;SDS011;5107;48.850;8.924;2023-06-05T02:22:04;3.37;;;2.40;;
10134;SDS011;5107;48.850;8.924;2023-06-05T02:24:29;5.57;;;2.30;;
10134;SDS011;5107;48.850;8.924;2023-06-05T02:26:55;3.07;;;2.23;;
10134;SDS011;5107;48.850;8.924;2023-06-05T02:29:20;3.23;;;2.47;;
10134;SDS011;5107;48.850;8.924;2023-06-05T02:31:45;4.37;;;2.60;;
10134;SDS011;5107;48.850;8.924;2023-06-05T02:34:11;2.50;;;2.30;;
10134;SDS011;5107;48.850;8.924;2023-06-05T02:36:36;2.93;;;2.40;;
10134;SDS011;5107;48.850;8.924;2023-06-05T02:39:02;2.37;;;2.10;;
10134;SDS011;5107;48.850;8.924;2023-06-05T02:41:29;2.97;;;2.27;;
10134;SDS011;5107;48.850;8.924;2023-06-05T02:43:55;3.53;;;2.20;;
10134;SDS011;5107;48.850;8.924;2023-06-05T02:46:21;2.83;;;2.30;;
10134;SDS011;5107;48.850;8.924;2023-06-05T02:48:47;2.67;;;2.13;;
10134;SDS011;5107;48.850;8.924;2023-06-05T02:51:12;2.33;;;2.10;;
10134;SDS011;5107;48.850;8.924;2023-06-05T02:53:38;2.60;;;2.40;;
10134;SDS011;5107;48.850;8.924;2023-06-05T02:56:03;3.13;;;2.47;;
10134;SDS011;5107;48.850;8.924;2023-06-05T02:58:30;2.73;;;2.50;;
10134;SDS011;5107;48.850;8.924;2023-06-05T03:00:56;2.70;;;2.30;;
10134;SDS011;5107;48.850;8.924;2023-06-05T03:03:27;3.10;;;2.27;;
10134;SDS011;5107;48.850;8.924;2023-06-05T03:05:54;3.00;;;2.50;;
10134;SDS011;5107;48.850;8.924;2023-06-05T03:08:20;4.23;;;2.67;;
10134;SDS011;5107;48.850;8.924;2023-06-05T03:10:46;2.90;;;2.30;;
10134;SDS011;5107;48.850;8.924;2023-06-05T03:13:11;3.30;;;2.50;;
10134;SDS011;5107;48.850;8.924;2023-06-05T03:15:37;3.47;;;2.60;;
10134;SDS011;5107;48.850;8.924;2023-06-05T03:18:02;3.00;;;2.50;;
10134;SDS011;5107;48.850;8.924;2023-06-05T03:20:27;3.93;;;2.20;;
10134;SDS011;5107;48.850;8.924;2023-06-05T03:22:53;2.57;;;2.20;;
10134;SDS011;5107;48.850;8.924;2023-06-05T03:25:21;4.70;;;2.40;;
10134;SDS011;5107;48.850;8.924;2023-06-05T03:27:47;3.83;;;2.53;;
10134;SDS011;5107;48.850;8.924;2023-06-05T03:30:12;2.43;;;2.23;;
10134;SDS011;5107;48.850;8.924;2023-06-05T03:32:41;5.77;;;2.40;;
10134;SDS011;5107;48.850;8.924;2023-06-05T03:35:06;3.03;;;2.40;;
10134;SDS011;5107;48.850;8.924;2023-06-05T03:37:32;2.90;;;2.13;;
10134;SDS011;5107;48.850;8.924;2023-06-05T03:39:57;4.03;;;2.70;;
10134;SDS011;5107;48.850;8.924;2023-06-05T03:42:23;2.93;;;2.50;;
10134;SDS011;5107;48.850;8.924;2023-06-05T03:44:48;3.37;;;2.40;;
10134;SDS011;5107;48.850;8.924;2023-06-05T03:47:13;3.97;;;2.40;;
10134;SDS011;5107;48.850;8.924;2023-06-05T03:49:39;4.37;;;2.60;;
10134;SDS011;5107;48.850;8.924;2023-06-05T03:52:12;4.03;;;2.40;;
10134;SDS011;5107;48.850;8.924;2023-06-05T03:54:41;3.13;;;2.70;;
10134;SDS011;5107;48.850;8.924;2023-06-05T03:57:09;3.27;;;2.60;;
10134;SDS011;5107;48.850;8.924;2023-06-05T03:59:37;2.70;;;2.50;;
10134;SDS011;5107;48.850;8.924;2023-06-05T04:02:03;3.27;;;2.70;;
10134;SDS011;5107;48.850;8.924;2023-06-05T04:04:29;2.50;;;2.30;;
10134;SDS011;5107;48.850;8.924;2023-06-05T04:06:55;2.60;;;2.40;;
10134;SDS011;5107;48.850;8.924;2023-06-05T04:09:23;3.30;;;2.47;;
10134;SDS011;5107;48.850;8.924;2023-06-05T04:11:48;3.27;;;2.60;;
10134;SDS011;5107;48.850;8.924;2023-06-05T04:14:15;4.27;;;2.67;;
10134;SDS011;5107;48.850;8.924;2023-06-05T04:16:40;3.17;;;2.80;;
10134;SDS011;5107;48.850;8.924;2023-06-05T04:19:08;3.00;;;2.50;;
10134;SDS011;5107;48.850;8.924;2023-06-05T04:21:35;5.27;;;2.60;;
10134;SDS011;5107;48.850;8.924;2023-06-05T04:24:02;3.60;;;2.50;;
10134;SDS011;5107;48.850;8.924;2023-06-05T04:26:32;2.30;;;2.10;;
10134;SDS011;5107;48.850;8.924;2023-06-05T04:29:01;17.17;;;3.40;;
10134;SDS011;5107;48.850;8.924;2023-06-05T04:31:31;3.67;;;2.73;;
10134;SDS011;5107;48.850;8.924;2023-06-05T04:33:57;2.40;;;2.17;;
10134;SDS011;5107;48.850;8.924;2023-06-05T04:36:24;5.13;;;2.67;;
10134;SDS011;5107;48.850;8.924;2023-06-05T04:38:50;8.40;;;2.80;;
10134;SDS011;5107;48.850;8.924;2023-06-05T04:41:16;2.53;;;2.30;;
10134;SDS011;5107;48.850;8.924;2023-06-05T04:43:41;2.97;;;2.55;;
10134;SDS011;5107;48.850;8.924;2023-06-05T04:46:07;4.28;;;2.70;;
10134;SDS011;5107;48.850;8.924;2023-06-05T04:48:33;3.85;;;2.70;;
10134;SDS011;5107;48.850;8.924;2023-06-05T04:50:59;3.80;;;2.38;;
10134;SDS011;5107;48.850;8.924;2023-06-05T04:53:25;3.58;;;2.75;;
10134;SDS011;5107;48.850;8.924;2023-06-05T04:55:53;3.38;;;2.75;;
10134;SDS011;5107;48.850;8.924;2023-06-05T04:58:19;2.97;;;2.67;;
10134;SDS011;5107;48.850;8.924;2023-06-05T05:00:44;4.38;;;2.70;;
10134;SDS011;5107;48.850;8.924;2023-06-05T05:03:10;3.08;;;2.70;;
10134;SDS011;5107;48.850;8.924;2023-06-05T05:05:38;5.43;;;2.60;;
10134;SDS011;5107;48.850;8.924;2023-06-05T05:08:04;3.65;;;2.80;;
10134;SDS011;5107;48.850;8.924;2023-06-05T05:10:30;6.80;;;2.85;;
10134;SDS011;5107;48.850;8.924;2023-06-05T05:12:55;3.38;;;2.45;;
10134;SDS011;5107;48.850;8.924;2023-06-05T05:15:20;3.75;;;3.03;;
10134;SDS011;5107;48.850;8.924;2023-06-05T05:17:46;6.22;;;2.65;;
10134;SDS011;5107;48.850;8.924;2023-06-05T05:20:11;3.58;;;3.00;;
10134;SDS011;5107;48.850;8.924;2023-06-05T05:22:37;3.88;;;2.90;;
10134;SDS011;5107;48.850;8.924;2023-06-05T05:25:02;2.90;;;2.60;;
10134;SDS011;5107;48.850;8.924;2023-06-05T05:27:28;2.78;;;2.47;;
10134;SDS011;5107;48.850;8.924;2023-06-05T05:29:53;2.58;;;2.38;;
10134;SDS011;5107;48.850;8.924;2023-06-05T05:32:18;4.00;;;2.33;;
10134;SDS011;5107;48.850;8.924;2023-06-05T05:34:44;5.03;;;2.25;;
10134;SDS011;5107;48.850;8.924;2023-06-05T05:37:11;2.88;;;2.10;;
10134;SDS011;5107;48.850;8.924;2023-06-05T05:39:36;3.63;;;2.58;;
10134;SDS011;5107;48.850;8.924;2023-06-05T05:42:01;2.50;;;2.30;;
10134;SDS011;5107;48.850;8.924;2023-06-05T05:44:27;3.65;;;2.40;;
10134;SDS011;5107;48.850;8.924;2023-06-05T05:46:53;5.82;;;2.45;;
10134;SDS011;5107;48.850;8.924;2023-06-05T05:49:18;2.65;;;2.45;;
10134;SDS011;5107;48.850;8.924;2023-06-05T05:51:43;2.35;;;2.15;;
10134;SDS011;5107;48.850;8.924;2023-06-05T05:54:08;3.10;;;2.47;;
10134;SDS011;5107;48.850;8.924;2023-06-05T05:56:34;2.53;;;2.33;;
10134;SDS011;5107;48.850;8.924;2023-06-05T05:59:01;3.13;;;2.50;;
10134;SDS011;5107;48.850;8.924;2023-06-05T06:01:27;4.28;;;2.30;;
10134;SDS011;5107;48.850;8.924;2023-06-05T06:03:53;2.60;;;2.40;;
10134;SDS011;5107;48.850;8.924;2023-06-05T06:06:19;2.72;;;2.47;;
10134;SDS011;5107;48.850;8.924;2023-06-05T06:08:45;4.72;;;2.40;;
10134;SDS011;5107;48.850;8.924;2023-06-05T06:11:10;2.88;;;2.47;;
10134;SDS011;5107;48.850;8.924;2023-06-05T06:13:35;4.50;;;2.60;;
10134;SDS011;5107;48.850;8.924;2023-06-05T06:16:02;4.22;;;2.78;;
10134;SDS011;5107;48.850;8.924;2023-06-05T06:18:27;3.20;;;2.45;;
10134;SDS011;5107;48.850;8.924;2023-06-05T06:20:53;3.25;;;2.75;;
10134;SDS011;5107;48.850;8.924;2023-06-05T06:23:18;4.55;;;2.50;;
10134;SDS011;5107;48.850;8.924;2023-06-05T06:25:44;4.18;;;2.40;;
10134;SDS011;5107;48.850;8.924;2023-06-05T06:28:09;2.75;;;2.50;;
10134;SDS011;5107;48.850;8.924;2023-06-05T06:30:35;3.30;;;2.50;;
10134;SDS011;5107;48.850;8.924;2023-06-05T06:33:01;3.65;;;2.55;;
10134;SDS011;5107;48.850;8.924;2023-06-05T06:35:29;3.55;;;2.58;;
10134;SDS011;5107;48.850;8.924;2023-06-05T06:37:56;5.85;;;2.67;;
10134;SDS011;5107;48.850;8.924;2023-06-05T06:40:22;2.75;;;2.38;;
10134;SDS011;5107;48.850;8.924;2023-06-05T06:42:48;3.13;;;2.42;;
10134;SDS011;5107;48.850;8.924;2023-06-05T06:45:14;2.63;;;2.42;;
10134;SDS011;5107;48.850;8.924;2023-06-05T06:47:40;5.57;;;2.65;;
10134;SDS011;5107;48.850;8.924;2023-06-05T06:50:06;3.47;;;2.70;;
10134;SDS011;5107;48.850;8.924;2023-06-05T06:52:32;3.10;;;2.65;;
10134;SDS011;5107;48.850;8.924;2023-06-05T06:54:57;3.90;;;2.50;;
10134;SDS011;5107;48.850;8.924;2023-06-05T06:57:22;5.68;;;2.33;;
10134;SDS011;5107;48.850;8.924;2023-06-05T06:59:48;4.18;;;2.58;;
10134;SDS011;5107;48.850;8.924;2023-06-05T07:02:20;5.05;;;2.60;;
10134;SDS011;5107;48.850;8.924;2023-06-05T07:04:48;5.68;;;2.78;;
10134;SDS011;5107;48.850;8.924;2023-06-05T07:07:14;4.70;;;2.55;;
10134;SDS011;5107;48.850;8.924;2023-06-05T07:09:41;2.92;;;2.55;;
10134;SDS011;5107;48.850;8.924;2023-06-05T07:12:08;2.75;;;2.45;;
10134;SDS011;5107;48.850;8.924;2023-06-05T07:14:34;4.10;;;3.10;;
10134;SDS011;5107;48.850;8.924;2023-06-05T07:17:00;3.67;;;2.80;;
10134;SDS011;5107;48.850;8.924;2023-06-05T07:19:29;6.18;;;2.70;;
10134;SDS011;5107;48.850;8.924;2023-06-05T07:21:55;5.63;;;2.63;;
10134;SDS011;5107;48.850;8.924;2023-06-05T07:24:22;4.85;;;2.88;;
10134;SDS011;5107;48.850;8.924;2023-06-05T07:26:49;5.82;;;2.83;;
10134;SDS011;5107;48.850;8.924;2023-06-05T07:29:17;7.20;;;2.90;;
10134;SDS011;5107;48.850;8.924;2023-06-05T07:31:42;3.17;;;2.88;;
10134;SDS011;5107;48.850;8.924;2023-06-05T07:34:08;3.65;;;3.13;;
10134;SDS011;5107;48.850;8.924;2023-06-05T07:36:33;6.22;;;2.85;;
10134;SDS011;5107;48.850;8.924;2023-06-05T07:38:58;5.07;;;3.33;;
10134;SDS011;5107;48.850;8.924;2023-06-05T07:41:24;4.68;;;3.03;;
10134;SDS011;5107;48.850;8.924;2023-06-05T07:43:50;4.50;;;3.10;;
10134;SDS011;5107;48.850;8.924;2023-06-05T07:46:15;8.88;;;3.33;;
10134;SDS011;5107;48.850;8.924;2023-06-05T07:48:41;3.90;;;3.50;;
10134;SDS011;5107;48.850;8.924;2023-06-05T07:51:06;5.32;;;3.22;;
10134;SDS011;5107;48.850;8.924;2023-06-05T07:53:33;4.80;;;3.20;;
10134;SDS011;5107;48.850;8.924;2023-06-05T07:55:59;4.68;;;3.20;;
10134;SDS011;5107;48.850;8.924;2023-06-05T07:58:24;6.50;;;3.55;;
10134;SDS011;5107;48.850;8.924;2023-06-05T08:00:52;8.48;;;3.72;;
10134;SDS011;5107;48.850;8.924;2023-06-05T08:03:18;4.55;;;3.30;;
10134;SDS011;5107;48.850;8.924;2023-06-05T08:05:45;5.05;;;3.22;;
10134;SDS011;5107;48.850;8.924;2023-06-05T08:08:14;6.38;;;3.58;;
10134;SDS011;5107;48.850;8.924;2023-06-05T08:10:40;5.63;;;3.10;;
10134;SDS011;5107;48.850;8.924;2023-06-05T08:13:07;4.07;;;3.22;;
10134;SDS011;5107;48.850;8.924;2023-06-05T08:15:33;4.82;;;3.30;;
10134;SDS011;5107;48.850;8.924;2023-06-05T08:17:58;4.75;;;3.30;;
10134;SDS011;5107;48.850;8.924;2023-06-05T08:20:24;5.38;;;3.78;;
10134;SDS011;5107;48.850;8.924;2023-06-05T08:22:49;4.45;;;3.50;;
10134;SDS011;5107;48.850;8.924;2023-06-05T08:25:14;3.67;;;3.35;;
10134;SDS011;5107;48.850;8.924;2023-06-05T08:27:40;8.65;;;3.80;;
10134;SDS011;5107;48.850;8.924;2023-06-05T08:30:05;6.53;;;4.25;;
10134;SDS011;5107;48.850;8.924;2023-06-05T08:32:32;5.80;;;3.90;;
10134;SDS011;5107;48.850;8.924;2023-06-05T08:34:58;6.88;;;4.00;;
10134;SDS011;5107;48.850;8.924;2023-06-05T08:37:23;6.28;;;4.50;;
10134;SDS011;5107;48.850;8.924;2023-06-05T08:39:48;4.97;;;4.40;;
10134;SDS011;5107;48.850;8.924;2023-06-05T08:42:15;8.75;;;4.20;;
10134;SDS011;5107;48.850;8.924;2023-06-05T08:44:43;4.72;;;4.10;;
10134;SDS011;5107;48.850;8.924;2023-06-05T08:47:12;7.63;;;4.10;;
10134;SDS011;5107;48.850;8.924;2023-06-05T08:49:39;5.15;;;4.72;;
10134;SDS011;5107;48.850;8.924;2023-06-05T08:52:06;6.82;;;4.53;;
10134;SDS011;5107;48.850;8.924;2023-06-05T08:54:37;7.28;;;5.25;;
10134;SDS011;5107;48.850;8.924;2023-06-05T08:57:04;7.40;;;4.70;;
10134;SDS011;5107;48.850;8.924;2023-06-05T08:59:30;6.80;;;5.13;;
10134;SDS011;5107;48.850;8.924;2023-06-05T09:01:56;5.28;;;4.75;;
10134;SDS011;5107;48.850;8.924;2023-06-05T09:04:22;7.15;;;5.60;;
10134;SDS011;5107;48.850;8.924;2023-06-05T09:06:49;9.00;;;4.97;;
10134;SDS011;5107;48.850;8.924;2023-06-05T09:09:17;6.82;;;4.90;;
10134;SDS011;5107;48.850;8.924;2023-06-05T09:11:43;7.82;;;4.88;;
10134;SDS011;5107;48.850;8.924;2023-06-05T09:14:08;5.07;;;4.57;;
10134;SDS011;5107;48.850;8.924;2023-06-05T09:16:38;5.63;;;5.03;;
10134;SDS011;5107;48.850;8.924;2023-06-05T09:19:08;5.78;;;4.70;;
10134;SDS011;5107;48.850;8.924;2023-06-05T09:21:36;9.05;;;5.10;;
10134;SDS011;5107;48.850;8.924;2023-06-05T09:24:11;7.63;;;5.22;;
10134;SDS011;5107;48.850;8.924;2023-06-05T09:26:54;7.25;;;4.80;;
10134;SDS011;5107;48.850;8.924;2023-06-05T09:29:22;7.03;;;5.18;;
10134;SDS011;5107;48.850;8.924;2023-06-05T09:31:52;7.30;;;5.18;;
10134;SDS011;5107;48.850;8.924;2023-06-05T09:34:26;6.85;;;5.07;;
10134;SDS011;5107;48.850;8.924;2023-06-05T09:36:54;7.57;;;5.20;;
10134;SDS011;5107;48.850;8.924;2023-06-05T09:39:22;7.28;;;5.07;;
10134;SDS011;5107;48.850;8.924;2023-06-05T09:41:50;9.52;;;4.93;;
10134;SDS011;5107;48.850;8.924;2023-06-05T09:44:16;7.20;;;5.00;;
10134;SDS011;5107;48.850;8.924;2023-06-05T09:49:18;8.05;;;5.53;;
10134;SDS011;5107;48.850;8.924;2023-06-05T09:51:43;6.38;;;5.10;;
10134;SDS011;5107;48.850;8.924;2023-06-05T09:54:10;8.57;;;5.00;;
10134;SDS011;5107;48.850;8.924;2023-06-05T09:56:37;7.18;;;4.93;;
10134;SDS011;5107;48.850;8.924;2023-06-05T09:59:08;5.82;;;4.75;;
10134;SDS011;5107;48.850;8.924;2023-06-05T10:01:35;6.35;;;4.85;;
10134;SDS011;5107;48.850;8.924;2023-06-05T10:04:08;6.15;;;4.40;;
10134;SDS011;5107;48.850;8.924;2023-06-05T10:06:35;6.50;;;4.68;;
10134;SDS011;5107;48.850;8.924;2023-06-05T10:09:02;7.97;;;4.93;;
10134;SDS011;5107;48.850;8.924;2023-06-05T10:11:28;7.72;;;4.60;;
10134;SDS011;5107;48.850;8.924;2023-06-05T10:13:54;6.82;;;5.10;;
10134;SDS011;5107;48.850;8.924;2023-06-05T10:16:20;7.13;;;4.72;;
10134;SDS011;5107;48.850;8.924;2023-06-05T10:18:46;7.93;;;5.18;;
10134;SDS011;5107;48.850;8.924;2023-06-05T10:21:16;5.32;;;4.63;;
10134;SDS011;5107;48.850;8.924;2023-06-05T10:23:43;6.00;;;4.63;;
10134;SDS011;5107;48.850;8.924;2023-06-05T10:26:21;7.03;;;4.65;;
10134;SDS011;5107;48.850;8.924;2023-06-05T10:28:52;7.05;;;4.68;;
10134;SDS011;5107;48.850;8.924;2023-06-05T10:31:38;5.05;;;3.95;;
10134;SDS011;5107;48.850;8.924;2023-06-05T10:34:32;9.30;;;4.63;;
10134;SDS011;5107;48.850;8.924;2023-06-05T10:39:59;5.38;;;4.40;;
10134;SDS011;5107;48.850;8.924;2023-06-05T10:44:54;4.93;;;4.43;;
10134;SDS011;5107;48.850;8.924;2023-06-05T10:52:41;5.25;;;4.07;;
10134;SDS011;5107;48.850;8.924;2023-06-05T10:55:07;4.60;;;4.20;;
10134;SDS011;5107;48.850;8.924;2023-06-05T11:00:31;4.70;;;4.22;;
10134;SDS011;5107;48.850;8.924;2023-06-05T11:02:57;6.05;;;4.30;;
10134;SDS011;5107;48.850;8.924;2023-06-05T11:05:23;5.22;;;4.00;;
10134;SDS011;5107;48.850;8.924;2023-06-05T11:08:09;6.63;;;3.90;;
10134;SDS011;5107;48.850;8.924;2023-06-05T11:16:26;7.97;;;4.45;;
10134;SDS011;5107;48.850;8.924;2023-06-05T11:18:51;5.85;;;4.10;;
10134;SDS011;5107;48.850;8.924;2023-06-05T11:21:16;5.15;;;4.63;;
10134;SDS011;5107;48.850;8.924;2023-06-05T11:23:45;5.90;;;4.20;;
10134;SDS011;5107;48.850;8.924;2023-06-05T11:26:40;4.32;;;3.92;;
10134;SDS011;5107;48.850;8.924;2023-06-05T11:29:10;6.13;;;4.05;;
10134;SDS011;5107;48.850;8.924;2023-06-05T11:31:38;4.90;;;3.72;;
10134;SDS011;5107;48.850;8.924;2023-06-05T11:34:09;4.50;;;4.10;;
10134;SDS011;5107;48.850;8.924;2023-06-05T11:36:36;5.70;;;4.00;;
10134;SDS011;5107;48.850;8.924;2023-06-05T11:39:01;4.10;;;3.70;;
10134;SDS011;5107;48.850;8.924;2023-06-05T11:41:27;8.30;;;3.63;;
10134;SDS011;5107;48.850;8.924;2023-06-05T11:43:52;5.50;;;3.83;;
10134;SDS011;5107;48.850;8.924;2023-06-05T11:46:18;3.72;;;3.42;;
10134;SDS011;5107;48.850;8.924;2023-06-05T11:48:43;5.25;;;3.70;;
10134;SDS011;5107;48.850;8.924;2023-06-05T11:51:10;4.13;;;3.72;;
10134;SDS011;5107;48.850;8.924;2023-06-05T11:53:42;4.05;;;3.22;;
10134;SDS011;5107;48.850;8.924;2023-06-05T11:56:13;4.10;;;3.33;;
10134;SDS011;5107;48.850;8.924;2023-06-05T11:58:41;3.80;;;3.47;;
10134;SDS011;5107;48.850;8.924;2023-06-05T12:01:08;4.80;;;3.55;;
10134;SDS011;5107;48.850;8.924;2023-06-05T12:03:42;5.13;;;3.58;;
10134;SDS011;5107;48.850;8.924;2023-06-05T12:06:11;4.63;;;3.55;;
10134;SDS011;5107;48.850;8.924;2023-06-05T12:08:38;7.30;;;3.60;;
10134;SDS011;5107;48.850;8.924;2023-06-05T12:11:18;3.88;;;3.58;;
10134;SDS011;5107;48.850;8.924;2023-06-05T12:13:49;5.75;;;3.53;;
10134;SDS011;5107;48.850;8.924;2023-06-05T12:16:17;4.80;;;3.47;;
10134;SDS011;5107;48.850;8.924;2023-06-05T12:18:43;4.13;;;3.75;;
10134;SDS011;5107;48.850;8.924;2023-06-05T12:21:20;4.93;;;3.83;;
10134;SDS011;5107;48.850;8.924;2023-06-05T12:23:47;6.03;;;3.95;;
10134;SDS011;5107;48.850;8.924;2023-06-05T12:26:12;4.28;;;3.72;;
10134;SDS011;5107;48.850;8.924;2023-06-05T12:28:37;7.07;;;4.55;;
10134;SDS011;5107;48.850;8.924;2023-06-05T12:31:04;5.50;;;3.83;;
10134;SDS011;5107;48.850;8.924;2023-06-05T12:33:30;4.88;;;3.70;;
10134;SDS011;5107;48.850;8.924;2023-06-05T12:36:05;4.80;;;3.45;;
10134;SDS011;5107;48.850;8.924;2023-06-05T12:38:36;5.15;;;4.00;;
10134;SDS011;5107;48.850;8.924;2023-06-05T12:41:02;5.75;;;3.90;;
10134;SDS011;5107;48.850;8.924;2023-06-05T12:43:28;5.28;;;3.92;;
10134;SDS011;5107;48.850;8.924;2023-06-05T12:45:53;4.53;;;3.80;;
10134;SDS011;5107;48.850;8.924;2023-06-05T12:48:19;4.97;;;3.60;;
10134;SDS011;5107;48.850;8.924;2023-06-05T12:50:45;3.90;;;3.60;;
10134;SDS011;5107;48.850;8.924;2023-06-05T12:53:11;4.07;;;3.78;;
10134;SDS011;5107;48.850;8.924;2023-06-05T12:55:36;4.05;;;3.67;;
10134;SDS011;5107;48.850;8.924;2023-06-05T12:58:01;5.13;;;4.28;;
10134;SDS011;5107;48.850;8.924;2023-06-05T13:00:26;4.45;;;4.00;;
10134;SDS011;5107;48.850;8.924;2023-06-05T13:02:52;5.47;;;3.80;;
10134;SDS011;5107;48.850;8.924;2023-06-05T13:05:18;4.00;;;3.60;;
10134;SDS011;5107;48.850;8.924;2023-06-05T13:07:43;4.05;;;3.75;;
10134;SDS011;5107;48.850;8.924;2023-06-05T13:10:09;5.68;;;3.80;;
10134;SDS011;5107;48.850;8.924;2023-06-05T13:12:38;6.40;;;3.80;;
10134;SDS011;5107;48.850;8.924;2023-06-05T13:15:03;4.47;;;3.90;;
10134;SDS011;5107;48.850;8.924;2023-06-05T13:17:31;5.22;;;3.83;;
10134;SDS011;5107;48.850;8.924;2023-06-05T13:19:59;4.38;;;3.80;;
10134;SDS011;5107;48.850;8.924;2023-06-05T13:22:25;4.80;;;4.00;;
10134;SDS011;5107;48.850;8.924;2023-06-05T13:24:50;6.40;;;3.85;;
10134;SDS011;5107;48.850;8.924;2023-06-05T13:27:16;4.45;;;3.95;;
10134;SDS011;5107;48.850;8.924;2023-06-05T13:29:41;4.30;;;3.70;;
10134;SDS011;5107;48.850;8.924;2023-06-05T13:32:07;5.00;;;4.25;;
10134;SDS011;5107;48.850;8.924;2023-06-05T13:34:32;6.20;;;4.10;;
10134;SDS011;5107;48.850;8.924;2023-06-05T13:36:58;4.60;;;3.70;;
10134;SDS011;5107;48.850;8.924;2023-06-05T13:39:24;4.55;;;4.15;;
10134;SDS011;5107;48.850;8.924;2023-06-05T13:41:49;4.90;;;4.50;;
10134;SDS011;5107;48.850;8.924;2023-06-05T13:44:14;7.28;;;4.35;;
10134;SDS011;5107;48.850;8.924;2023-06-05T13:46:39;4.55;;;4.00;;
10134;SDS011;5107;48.850;8.924;2023-06-05T13:49:06;4.57;;;4.07;;
10134;SDS011;5107;48.850;8.924;2023-06-05T13:51:31;7.15;;;4.20;;
10134;SDS011;5107;48.850;8.924;2023-06-05T13:53:56;4.15;;;3.75;;
10134;SDS011;5107;48.850;8.924;2023-06-05T13:56:22;4.30;;;3.90;;
10134;SDS011;5107;48.850;8.924;2023-06-05T13:58:47;4.60;;;4.20;;
10134;SDS011;5107;48.850;8.924;2023-06-05T14:01:13;5.05;;;4.43;;
10134;SDS011;5107;48.850;8.924;2023-06-05T14:03:38;4.65;;;4.25;;
10134;SDS011;5107;48.850;8.924;2023-06-05T14:06:04;4.80;;;4.30;;
10134;SDS011;5107;48.850;8.924;2023-06-05T14:08:30;4.50;;;4.10;;
10134;SDS011;5107;48.850;8.924;2023-06-05T14:10:58;4.22;;;3.83;;
10134;SDS011;5107;48.850;8.924;2023-06-05T14:13:23;5.00;;;4.20;;
10134;SDS011;5107;48.850;8.924;2023-06-05T14:15:48;5.65;;;4.15;;
10134;SDS011;5107;48.850;8.924;2023-06-05T14:18:14;5.18;;;4.07;;
10134;SDS011;5107;48.850;8.924;2023-06-05T14:20:39;6.15;;;4.32;;
10134;SDS011;5107;48.850;8.924;2023-06-05T14:23:05;5.18;;;4.63;;
10134;SDS011;5107;48.850;8.924;2023-06-05T14:25:30;5.15;;;4.45;;
10134;SDS011;5107;48.850;8.924;2023-06-05T14:27:56;4.72;;;4.05;;
10134;SDS011;5107;48.850;8.924;2023-06-05T14:30:22;4.80;;;4.40;;
10134;SDS011;5107;48.850;8.924;2023-06-05T14:32:49;5.22;;;4.20;;
10134;SDS011;5107;48.850;8.924;2023-06-05T14:35:15;4.50;;;4.10;;
10134;SDS011;5107;48.850;8.924;2023-06-05T14:37:41;4.43;;;4.00;;
10134;SDS011;5107;48.850;8.924;2023-06-05T14:40:07;4.97;;;3.80;;
10134;SDS011;5107;48.850;8.924;2023-06-05T14:42:33;7.07;;;4.30;;
10134;SDS011;5107;48.850;8.924;2023-06-05T14:44:59;7.90;;;4.40;;
10134;SDS011;5107;48.850;8.924;2023-06-05T14:47:24;6.22;;;3.75;;
10134;SDS011;5107;48.850;8.924;2023-06-05T14:49:49;5.10;;;4.60;;
10134;SDS011;5107;48.850;8.924;2023-06-05T14:52:15;4.45;;;4.05;;
10134;SDS011;5107;48.850;8.924;2023-06-05T14:54:40;4.50;;;4.10;;
10134;SDS011;5107;48.850;8.924;2023-06-05T14:57:06;4.35;;;3.95;;
10134;SDS011;5107;48.850;8.924;2023-06-05T14:59:32;6.68;;;4.20;;
10134;SDS011;5107;48.850;8.924;2023-06-05T15:01:57;5.30;;;3.90;;
10134;SDS011;5107;48.850;8.924;2023-06-05T15:04:24;4.72;;;4.15;;
10134;SDS011;5107;48.850;8.924;2023-06-05T15:06:50;5.78;;;3.80;;
10134;SDS011;5107;48.850;8.924;2023-06-05T15:09:18;4.10;;;3.70;;
10134;SDS011;5107;48.850;8.924;2023-06-05T15:11:44;4.65;;;3.63;;
10134;SDS011;5107;48.850;8.924;2023-06-05T15:14:09;4.43;;;3.70;;
10134;SDS011;5107;48.850;8.924;2023-06-05T15:16:34;3.92;;;3.50;;
10134;SDS011;5107;48.850;8.924;2023-06-05T15:19:00;4.07;;;3.70;;
10134;SDS011;5107;48.850;8.924;2023-06-05T15:21:25;6.18;;;3.63;;
10134;SDS011;5107;48.850;8.924;2023-06-05T15:23:51;4.20;;;3.45;;
10134;SDS011;5107;48.850;8.924;2023-06-05T15:26:16;5.93;;;3.47;;
10134;SDS011;5107;48.850;8.924;2023-06-05T15:28:41;4.60;;;3.60;;